createdAt,value
2018-09-18T00:00:00.108Z,78.80
2018-09-18T00:02:29.831Z,78.90
2018-09-18T00:04:59.570Z,79.30
2018-09-18T00:07:29.275Z,79.50
2018-09-18T00:09:58.953Z,80.30
2018-09-18T00:12:29.295Z,79.60
2018-09-18T00:14:58.963Z,79.80
2018-09-18T00:17:29.006Z,80.00
2018-09-18T00:19:58.660Z,80.40
2018-09-18T00:22:28.338Z,80.80
2018-09-18T00:24:57.991Z,81.10
2018-09-18T00:27:27.734Z,81.40
2018-09-18T00:29:57.414Z,81.90
2018-09-18T00:32:27.110Z,82.30
2018-09-18T00:34:56.790Z,82.10
2018-09-18T00:37:26.522Z,82.40
2018-09-18T00:39:56.187Z,82.60
2018-09-18T00:42:25.878Z,82.90
2018-09-18T00:44:55.558Z,83.70
2018-09-18T00:47:25.239Z,83.70
2018-09-18T00:49:54.898Z,83.30
2018-09-18T00:52:24.873Z,83.80
2018-09-18T00:54:54.597Z,83.80
2018-09-18T00:57:24.254Z,83.80
2018-09-18T00:59:53.925Z,83.90
2018-09-18T01:02:23.650Z,83.70
2018-09-18T01:04:53.341Z,84.20
2018-09-18T01:07:23.063Z,84.70
2018-09-18T01:09:52.734Z,84.40
2018-09-18T01:12:22.435Z,84.10
2018-09-18T01:14:52.146Z,84.00
2018-09-18T01:17:21.825Z,84.30
2018-09-18T01:19:51.490Z,84.00
2018-09-18T01:22:21.196Z,84.70
2018-09-18T01:24:50.874Z,84.40
2018-09-18T01:27:20.595Z,84.70
2018-09-18T01:29:50.242Z,84.50
2018-09-18T01:32:19.956Z,84.80
2018-09-18T01:34:49.636Z,84.70
2018-09-18T01:37:19.327Z,84.80
2018-09-18T01:39:48.996Z,85.30
2018-09-18T01:42:18.690Z,85.10
2018-09-18T01:44:48.359Z,85.30
2018-09-18T01:47:18.083Z,85.40
2018-09-18T01:49:47.951Z,85.60
2018-09-18T01:52:17.642Z,86.10
2018-09-18T01:54:47.338Z,86.00
2018-09-18T01:57:17.095Z,85.90
2018-09-18T01:59:46.843Z,86.30
2018-09-18T02:02:16.523Z,86.20
2018-09-18T02:04:46.204Z,86.10
2018-09-18T02:07:15.959Z,85.70
2018-09-18T02:09:45.714Z,86.60
2018-09-18T02:12:15.426Z,87.00
2018-09-18T02:14:45.632Z,87.80
2018-09-18T02:17:16.450Z,89.00
2018-09-18T02:19:46.183Z,89.50
2018-09-18T02:22:16.728Z,89.30
2018-09-18T02:24:46.427Z,89.80
2018-09-18T02:27:16.134Z,89.90
2018-09-18T02:29:45.840Z,89.60
2018-09-18T02:32:15.950Z,89.30
2018-09-18T02:34:45.646Z,89.20
2018-09-18T02:37:15.371Z,89.00
2018-09-18T02:39:45.082Z,89.30
2018-09-18T02:42:14.767Z,89.00
2018-09-18T02:44:44.445Z,88.90
2018-09-18T02:47:14.113Z,88.80
2018-09-18T02:49:43.840Z,88.70
2018-09-18T02:52:13.985Z,89.30
2018-09-18T02:54:43.672Z,89.20
2018-09-18T02:57:13.358Z,89.50
2018-09-18T02:59:43.030Z,89.50
2018-09-18T03:02:12.730Z,90.00
2018-09-18T03:04:42.419Z,90.20
2018-09-18T03:07:12.102Z,90.00
2018-09-18T03:09:41.782Z,89.70
2018-09-18T03:12:11.446Z,90.00
2018-09-18T03:14:41.133Z,90.10
2018-09-18T03:17:10.796Z,90.30
2018-09-18T03:19:40.475Z,90.10
2018-09-18T03:22:10.508Z,90.30
2018-09-18T03:24:40.200Z,90.40
2018-09-18T03:27:09.895Z,90.30
2018-09-18T03:29:39.582Z,90.50
2018-09-18T03:32:09.319Z,90.60
2018-09-18T03:34:39.222Z,90.70
2018-09-18T03:37:08.942Z,90.70
2018-09-18T03:39:38.646Z,90.80
2018-09-18T03:42:08.306Z,90.80
2018-09-18T03:44:38.023Z,90.80
2018-09-18T03:47:07.787Z,90.70
2018-09-18T03:49:37.498Z,90.60
2018-09-18T03:52:07.214Z,90.60
2018-09-18T03:54:36.906Z,90.80
2018-09-18T03:57:06.598Z,90.80
2018-09-18T03:59:36.287Z,90.80
2018-09-18T04:02:05.990Z,91.00
2018-09-18T04:04:35.711Z,90.90
2018-09-18T04:07:05.715Z,90.90
2018-09-18T04:09:35.386Z,90.90
2018-09-18T04:12:05.063Z,91.10
2018-09-18T04:14:34.788Z,91.00
2018-09-18T04:17:04.479Z,91.00
2018-09-18T04:19:34.214Z,91.10
2018-09-18T04:22:03.930Z,91.20
2018-09-18T04:24:33.639Z,91.20
2018-09-18T04:27:03.306Z,91.40
2018-09-18T04:29:33.079Z,91.50
2018-09-18T04:32:02.775Z,91.50
2018-09-18T04:34:32.483Z,91.70
2018-09-18T04:37:02.185Z,91.70
2018-09-18T04:39:31.899Z,91.80
2018-09-18T04:42:01.618Z,91.50
2018-09-18T04:44:31.415Z,91.90
2018-09-18T04:47:01.126Z,91.70
2018-09-18T04:49:30.843Z,92.10
2018-09-18T04:52:00.554Z,92.60
2018-09-18T04:54:30.315Z,92.10
2018-09-18T04:57:00.028Z,92.20
2018-09-18T04:59:30.171Z,92.50
2018-09-18T05:02:00.260Z,92.50
2018-09-18T05:04:31.027Z,92.50
2018-09-18T05:07:01.143Z,92.50
2018-09-18T05:09:31.219Z,92.80
2018-09-18T05:12:00.939Z,92.70
2018-09-18T05:14:30.632Z,92.60
2018-09-18T05:17:00.355Z,92.30
2018-09-18T05:19:30.059Z,92.40
2018-09-18T05:21:59.927Z,92.60
2018-09-18T05:24:29.619Z,92.50
2018-09-18T05:26:59.326Z,92.50
2018-09-18T05:29:29.035Z,92.00
2018-09-18T05:31:58.764Z,92.00
2018-09-18T05:34:28.452Z,92.10
2018-09-18T05:36:58.175Z,92.20
2018-09-18T05:39:28.238Z,92.40
2018-09-18T05:41:57.976Z,92.50
2018-09-18T05:44:27.930Z,92.50
2018-09-18T05:46:57.702Z,92.50
2018-09-18T05:49:29.273Z,92.50
2018-09-18T05:51:59.430Z,92.50
2018-09-18T05:54:29.535Z,92.70
2018-09-18T05:56:59.264Z,92.60
2018-09-18T05:59:28.982Z,92.50
2018-09-18T06:01:58.704Z,92.50
2018-09-18T06:04:28.402Z,92.80
2018-09-18T06:06:58.103Z,92.60
2018-09-18T06:09:27.791Z,92.50
2018-09-18T06:11:57.506Z,92.20
2018-09-18T06:14:27.207Z,92.10
2018-09-18T06:16:56.935Z,92.40
2018-09-18T06:19:26.631Z,92.60
2018-09-18T06:21:56.349Z,92.40
2018-09-18T06:24:26.050Z,92.40
2018-09-18T06:26:55.772Z,92.00
2018-09-18T06:29:25.470Z,91.70
2018-09-18T06:31:55.202Z,91.90
2018-09-18T06:34:24.911Z,92.00
2018-09-18T06:36:54.702Z,92.00
2018-09-18T06:39:24.580Z,91.90
2018-09-18T06:41:54.341Z,91.80
2018-09-18T06:44:24.051Z,91.60
2018-09-18T06:46:53.790Z,91.50
2018-09-18T06:49:23.486Z,91.50
2018-09-18T06:51:53.210Z,91.40
2018-09-18T06:54:22.936Z,91.50
2018-09-18T06:56:52.850Z,91.20
2018-09-18T06:59:22.550Z,90.90
2018-09-18T07:01:52.334Z,90.90
2018-09-18T07:04:22.059Z,90.80
2018-09-18T07:06:51.832Z,90.90
2018-09-18T07:09:21.566Z,90.90
2018-09-18T07:11:51.357Z,91.00
2018-09-18T07:14:21.055Z,90.60
2018-09-18T07:16:50.840Z,89.60
2018-09-18T07:19:20.606Z,90.30
2018-09-18T07:21:50.334Z,90.30
2018-09-18T07:24:20.053Z,90.10
2018-09-18T07:26:49.773Z,90.00
2018-09-18T07:29:19.495Z,90.10
2018-09-18T07:31:49.423Z,90.10
2018-09-18T07:34:19.135Z,90.30
2018-09-18T07:36:48.858Z,90.50
2018-09-18T07:39:18.857Z,90.60
2018-09-18T07:41:48.583Z,90.50
2018-09-18T07:44:18.287Z,90.50
2018-09-18T07:46:48.003Z,90.90
2018-09-18T07:49:17.715Z,91.00
2018-09-18T07:51:47.519Z,90.90
2018-09-18T07:54:17.228Z,91.00
2018-09-18T07:56:46.906Z,91.30
2018-09-18T07:59:17.074Z,91.50
2018-09-18T08:01:47.717Z,91.70
2018-09-18T08:04:17.539Z,91.00
2018-09-18T08:06:47.267Z,90.50
2018-09-18T08:09:16.963Z,90.40
2018-09-18T08:11:46.648Z,90.10
2018-09-18T08:14:16.354Z,89.60
2018-09-18T08:16:46.066Z,89.70
2018-09-18T08:19:15.858Z,89.80
2018-09-18T08:21:45.731Z,90.00
2018-09-18T08:24:15.407Z,90.00
2018-09-18T08:26:45.103Z,90.60
2018-09-18T08:29:14.795Z,89.70
2018-09-18T08:31:44.734Z,90.00
2018-09-18T08:34:14.432Z,90.10
2018-09-18T08:36:44.416Z,90.10
2018-09-18T08:39:14.507Z,88.80
2018-09-18T08:41:44.681Z,87.50
2018-09-18T08:44:14.632Z,86.60
2018-09-18T08:46:44.499Z,85.50
2018-09-18T08:49:14.188Z,85.50
2018-09-18T08:51:43.941Z,85.30
2018-09-18T08:54:13.810Z,85.60
2018-09-18T08:56:43.511Z,85.10
2018-09-18T08:59:13.460Z,83.80
2018-09-18T09:01:43.364Z,83.90
2018-09-18T09:04:13.794Z,83.10
2018-09-18T09:06:43.738Z,83.40
2018-09-18T09:09:14.938Z,81.50
2018-09-18T09:11:45.848Z,80.00
2018-09-18T09:14:15.534Z,79.80
2018-09-18T09:16:45.267Z,79.80
2018-09-18T09:19:17.024Z,78.60
2018-09-18T09:21:46.773Z,78.00
2018-09-18T09:24:16.622Z,77.60
2018-09-18T09:26:46.331Z,78.40
2018-09-18T09:29:16.287Z,77.70
2018-09-18T09:31:46.059Z,76.10
2018-09-18T09:34:15.813Z,75.80
2018-09-18T09:36:45.711Z,76.50
2018-09-18T09:39:15.923Z,74.70
2018-09-18T09:41:45.604Z,74.40
2018-09-18T09:44:15.448Z,73.80
2018-09-18T09:46:45.132Z,72.70
2018-09-18T09:49:14.864Z,72.00
2018-09-18T09:51:44.524Z,72.60
2018-09-18T09:54:14.219Z,71.70
2018-09-18T09:56:43.953Z,72.80
2018-09-18T09:59:13.856Z,72.20
2018-09-18T10:01:55.380Z,71.70
2018-09-18T10:04:25.155Z,71.80
2018-09-18T10:06:54.824Z,71.50
2018-09-18T10:09:30.171Z,71.40
2018-09-18T10:11:59.842Z,71.10
2018-09-18T10:14:29.580Z,70.20
2018-09-18T10:16:59.275Z,69.70
2018-09-18T10:19:34.652Z,68.30
2018-09-18T10:22:04.341Z,69.50
2018-09-18T10:24:34.032Z,69.00
2018-09-18T10:27:04.047Z,68.40
2018-09-18T10:29:33.857Z,69.70
2018-09-18T10:32:03.691Z,69.00
2018-09-18T10:34:33.410Z,66.80
2018-09-18T10:37:03.103Z,67.80
2018-09-18T10:39:32.739Z,67.20
2018-09-18T10:42:02.674Z,67.80
2018-09-18T10:44:32.506Z,67.70
2018-09-18T10:47:02.367Z,67.20
2018-09-18T10:49:32.118Z,68.10
2018-09-18T10:52:01.935Z,67.00
2018-09-18T10:54:31.612Z,66.90
2018-09-18T10:57:01.306Z,66.60
2018-09-18T10:59:30.700Z,65.70
2018-09-18T11:02:00.561Z,69.70
2018-09-18T11:04:30.094Z,66.70
2018-09-18T11:06:59.863Z,67.00
2018-09-18T11:09:29.755Z,66.50
2018-09-18T11:11:59.670Z,65.60
2018-09-18T11:14:29.568Z,67.70
2018-09-18T11:16:59.510Z,65.50
2018-09-18T11:19:29.346Z,65.90
2018-09-18T11:21:59.292Z,65.70
2018-09-18T11:24:28.795Z,65.50
2018-09-18T11:26:58.702Z,64.70
2018-09-18T11:29:28.408Z,63.70
2018-09-18T11:31:58.146Z,65.90
2018-09-18T11:34:28.024Z,62.70
2018-09-18T11:36:57.959Z,59.50
2018-09-18T11:39:27.643Z,60.10
2018-09-18T11:41:57.351Z,60.00
2018-09-18T11:44:27.034Z,59.30
2018-09-18T11:46:56.747Z,57.40
2018-09-18T11:49:26.427Z,59.00
2018-09-18T11:51:56.419Z,58.60
2018-09-18T11:54:27.267Z,57.70
2018-09-18T11:56:57.039Z,58.50
2018-09-18T11:59:27.115Z,58.50
2018-09-18T12:01:56.819Z,58.70
2018-09-18T12:04:27.524Z,58.80
2018-09-18T12:06:57.943Z,58.90
2018-09-18T12:09:27.647Z,59.50
2018-09-18T12:11:57.377Z,57.90
2018-09-18T12:14:27.707Z,57.40
2018-09-18T12:16:58.305Z,58.80
2018-09-18T12:19:29.389Z,59.40
2018-09-18T12:21:59.819Z,58.60
2018-09-18T12:24:29.608Z,58.40
2018-09-18T12:26:59.327Z,56.50
2018-09-18T12:29:29.011Z,57.20
2018-09-18T12:31:58.726Z,56.10
2018-09-18T12:34:28.456Z,57.30
2018-09-18T12:36:58.147Z,58.30
2018-09-18T12:39:27.875Z,55.70
2018-09-18T12:41:58.054Z,55.30
2018-09-18T12:44:27.948Z,56.30
2018-09-18T12:46:58.006Z,55.20
2018-09-18T12:49:27.730Z,55.00
2018-09-18T12:51:57.863Z,53.40
2018-09-18T12:54:27.696Z,53.30
2018-09-18T12:56:57.498Z,54.50
2018-09-18T12:59:27.396Z,52.90
2018-09-18T13:01:57.271Z,53.60
2018-09-18T13:04:26.939Z,52.90
2018-09-18T13:06:56.805Z,53.20
2018-09-18T13:09:26.656Z,52.20
2018-09-18T13:11:56.753Z,46.20
2018-09-18T13:14:26.849Z,46.50
2018-09-18T13:16:56.776Z,47.10
2018-09-18T13:19:31.390Z,47.40
2018-09-18T13:22:06.620Z,49.00
2018-09-18T13:24:40.532Z,51.10
2018-09-18T13:27:11.182Z,49.30
2018-09-18T13:29:43.054Z,49.20
2018-09-18T13:32:19.427Z,49.90
2018-09-18T13:34:50.091Z,51.60
2018-09-18T13:37:19.813Z,50.50
2018-09-18T13:39:50.205Z,48.90
2018-09-18T13:42:20.247Z,49.80
2018-09-18T13:44:50.227Z,48.80
2018-09-18T13:47:19.943Z,48.30
2018-09-18T13:49:49.687Z,49.60
2018-09-18T13:52:19.751Z,49.50
2018-09-18T13:54:49.434Z,48.40
2018-09-18T13:57:19.715Z,49.30
2018-09-18T13:59:49.643Z,48.70
2018-09-18T14:02:19.457Z,50.20
2018-09-18T14:04:49.364Z,50.90
2018-09-18T14:07:19.606Z,49.40
2018-09-18T14:09:49.624Z,49.50
2018-09-18T14:12:19.314Z,49.50
2018-09-18T14:14:49.054Z,51.30
2018-09-18T14:17:18.948Z,50.70
2018-09-18T14:19:48.631Z,50.60
2018-09-18T14:22:18.323Z,50.80
2018-09-18T14:24:48.007Z,50.40
2018-09-18T14:27:17.735Z,51.50
2018-09-18T14:29:47.446Z,53.50
2018-09-18T14:32:17.941Z,53.20
2018-09-18T14:34:47.902Z,53.10
2018-09-18T14:37:17.774Z,53.50
2018-09-18T14:39:47.515Z,53.70
2018-09-18T14:42:17.231Z,53.20
2018-09-18T14:44:47.063Z,54.80
2018-09-18T14:47:16.779Z,54.50
2018-09-18T14:49:46.220Z,54.30
2018-09-18T14:52:15.900Z,54.40
2018-09-18T14:54:45.660Z,54.30
2018-09-18T14:57:15.346Z,54.70
2018-09-18T14:59:45.083Z,55.10
2018-09-18T15:02:17.416Z,54.90
2018-09-18T15:04:47.321Z,55.70
2018-09-18T15:07:17.321Z,55.70
2018-09-18T15:09:47.220Z,55.60
2018-09-18T15:12:17.263Z,56.30
2018-09-18T15:14:47.028Z,56.20
2018-09-18T15:17:17.551Z,56.50
2018-09-18T15:19:47.243Z,55.90
2018-09-18T15:22:16.919Z,55.90
2018-09-18T15:24:46.611Z,55.50
2018-09-18T15:27:16.321Z,55.80
2018-09-18T15:29:46.058Z,55.30
2018-09-18T15:32:15.760Z,55.40
2018-09-18T15:34:45.674Z,55.90
2018-09-18T15:37:15.339Z,54.50
2018-09-18T15:39:45.150Z,54.30
2018-09-18T15:42:14.935Z,54.90
2018-09-18T15:44:44.618Z,55.40
2018-09-18T15:47:14.287Z,55.00
2018-09-18T15:49:44.846Z,54.60
2018-09-18T15:52:15.728Z,54.80
2018-09-18T15:54:45.449Z,53.90
2018-09-18T15:57:15.505Z,53.90
2018-09-18T15:59:45.550Z,53.10
2018-09-18T16:02:15.587Z,55.90
2018-09-18T16:04:45.457Z,56.10
2018-09-18T16:07:15.499Z,56.10
2018-09-18T16:09:45.493Z,54.50
2018-09-18T16:12:15.339Z,54.70
2018-09-18T16:14:44.844Z,56.40
2018-09-18T16:17:14.364Z,54.90
2018-09-18T16:19:44.095Z,57.20
2018-09-18T16:22:13.782Z,57.70
2018-09-18T16:24:43.561Z,58.00
2018-09-18T16:27:13.410Z,58.70
2018-09-18T16:29:43.495Z,59.30
2018-09-18T16:32:13.931Z,60.10
2018-09-18T16:34:43.624Z,59.30
2018-09-18T16:37:13.013Z,59.80
2018-09-18T16:39:42.678Z,59.90
2018-09-18T16:42:12.553Z,60.00
2018-09-18T16:44:42.466Z,60.30
2018-09-18T16:47:12.538Z,60.60
2018-09-18T16:49:42.234Z,60.70
2018-09-18T16:52:12.000Z,60.50
2018-09-18T16:54:41.842Z,60.60
2018-09-18T16:57:15.090Z,61.70
2018-09-18T16:59:45.266Z,62.20
2018-09-18T17:02:15.127Z,62.00
2018-09-18T17:04:45.044Z,62.90
2018-09-18T17:07:14.812Z,63.60
2018-09-18T17:09:44.594Z,64.30
2018-09-18T17:12:14.778Z,64.00
2018-09-18T17:14:44.521Z,64.40
2018-09-18T17:17:14.018Z,65.20
2018-09-18T17:19:44.276Z,65.70
2018-09-18T17:22:14.055Z,65.30
2018-09-18T17:24:44.115Z,65.80
2018-09-18T17:27:14.132Z,65.30
2018-09-18T17:29:44.179Z,65.90
2018-09-18T17:32:13.982Z,65.40
2018-09-18T17:34:43.740Z,66.30
2018-09-18T17:37:13.599Z,65.40
2018-09-18T17:41:08.658Z,63.00
2018-09-18T17:43:39.484Z,62.10
2018-09-18T17:46:15.371Z,61.30
2018-09-18T17:48:48.271Z,61.40
2018-09-18T17:51:18.299Z,61.20
2018-09-18T17:53:49.170Z,61.60
2018-09-18T17:56:20.498Z,62.40
2018-09-18T17:58:50.333Z,63.10
2018-09-18T18:01:20.427Z,63.50
2018-09-18T18:03:50.524Z,64.20
2018-09-18T18:06:20.339Z,65.20
2018-09-18T18:08:50.147Z,64.60
2018-09-18T18:11:20.018Z,64.30
2018-09-18T18:13:49.819Z,65.50
2018-09-18T18:16:19.638Z,64.90
2018-09-18T18:18:50.376Z,65.70
2018-09-18T18:21:20.671Z,65.30
2018-09-18T18:23:50.515Z,65.50
2018-09-18T18:26:20.431Z,64.40
2018-09-18T18:28:50.654Z,63.70
2018-09-18T18:31:21.182Z,63.80
2018-09-18T18:33:50.658Z,65.80
2018-09-18T18:36:21.041Z,64.90
2018-09-18T18:38:51.030Z,64.80
2018-09-18T18:41:28.440Z,63.20
2018-09-18T18:43:58.416Z,62.70
2018-09-18T18:46:28.327Z,64.00
2018-09-18T18:48:58.558Z,61.00
2018-09-18T18:51:28.406Z,62.20
2018-09-18T18:53:58.182Z,62.80
2018-09-18T18:56:28.021Z,62.10
2018-09-18T18:58:57.853Z,63.30
2018-09-18T19:01:27.787Z,62.10
2018-09-18T19:03:58.251Z,63.20
2018-09-18T19:06:28.215Z,64.70
2018-09-18T19:08:58.390Z,64.00
2018-09-18T19:11:28.228Z,63.60
2018-09-18T19:13:58.333Z,62.50
2018-09-18T19:16:28.422Z,62.00
2018-09-18T19:18:58.522Z,60.80
2018-09-18T19:21:28.597Z,60.60
2018-09-18T19:23:58.743Z,60.80
2018-09-18T19:26:28.819Z,60.80
2018-09-18T19:28:58.932Z,60.30
2018-09-18T19:31:29.060Z,60.80
2018-09-18T19:33:59.793Z,61.70
2018-09-18T19:36:29.638Z,61.80
2018-09-18T19:38:59.446Z,63.10
2018-09-18T19:41:29.779Z,63.30
2018-09-18T19:43:59.896Z,64.80
2018-09-18T19:46:31.711Z,63.20
2018-09-18T19:49:02.054Z,63.60
2018-09-18T19:51:32.000Z,64.00
2018-09-18T19:54:02.173Z,63.80
2018-09-18T19:56:32.728Z,64.80
2018-09-18T19:59:02.787Z,63.30
2018-09-18T20:01:32.660Z,62.60
2018-09-18T20:04:03.073Z,65.00
2018-09-18T20:06:32.865Z,65.20
2018-09-18T20:09:03.294Z,65.10
2018-09-18T20:11:33.491Z,67.10
2018-09-18T20:14:03.548Z,64.10
2018-09-18T20:16:33.562Z,64.20
2018-09-18T20:19:03.306Z,65.20
2018-09-18T20:21:33.119Z,64.80
2018-09-18T20:24:02.880Z,64.30
2018-09-18T20:26:32.624Z,65.50
2018-09-18T20:29:02.349Z,67.10
2018-09-18T20:31:32.348Z,67.90
2018-09-18T20:34:02.443Z,67.20
2018-09-18T20:36:32.640Z,68.90
2018-09-18T20:39:03.032Z,69.90
2018-09-18T20:41:32.743Z,69.20
2018-09-18T20:44:02.748Z,68.00
2018-09-18T20:46:32.531Z,67.40
2018-09-18T20:49:02.262Z,67.00
2018-09-18T20:51:31.986Z,66.00
2018-09-18T20:54:01.719Z,67.80
2018-09-18T20:56:31.715Z,68.60
2018-09-18T20:59:01.781Z,69.40
2018-09-18T21:01:31.854Z,68.60
2018-09-18T21:04:01.647Z,68.30
2018-09-18T21:06:31.379Z,67.80
2018-09-18T21:09:01.421Z,69.30
2018-09-18T21:11:31.453Z,69.10
2018-09-18T21:14:01.501Z,69.30
2018-09-18T21:16:31.359Z,69.50
2018-09-18T21:19:01.151Z,69.50
2018-09-18T21:21:31.282Z,69.90
2018-09-18T21:24:01.016Z,70.20
2018-09-18T21:26:31.452Z,71.10
2018-09-18T21:29:01.208Z,71.40
2018-09-18T21:31:30.890Z,70.80
2018-09-18T21:34:00.607Z,71.40
2018-09-18T21:36:30.462Z,72.30
2018-09-18T21:39:00.422Z,72.50
2018-09-18T21:41:30.123Z,71.70
2018-09-18T21:43:59.832Z,72.20
2018-09-18T21:46:29.523Z,72.20
2018-09-18T21:48:59.553Z,72.80
2018-09-18T21:51:29.286Z,73.70
2018-09-18T21:53:59.023Z,72.50
2018-09-18T21:56:28.712Z,73.00
2018-09-18T21:58:58.450Z,73.30
2018-09-18T22:01:28.201Z,73.40
2018-09-18T22:03:58.131Z,72.60
2018-09-18T22:06:27.839Z,72.70
2018-09-18T22:08:57.682Z,73.30
2018-09-18T22:11:27.366Z,74.40
2018-09-18T22:13:57.141Z,74.80
2018-09-18T22:16:26.913Z,73.70
2018-09-18T22:18:57.024Z,74.50
2018-09-18T22:21:26.692Z,74.50
2018-09-18T22:23:56.407Z,75.30
2018-09-18T22:26:26.228Z,76.90
2018-09-18T22:28:55.923Z,78.10
2018-09-18T22:31:25.599Z,78.30
2018-09-18T22:33:55.289Z,78.30
2018-09-18T22:36:24.951Z,78.80
2018-09-18T22:38:54.827Z,78.70
2018-09-18T22:41:24.495Z,78.80
2018-09-18T22:43:54.194Z,79.00
2018-09-18T22:46:23.868Z,79.20
2018-09-18T22:48:53.587Z,79.60
2018-09-18T22:51:23.301Z,79.20
2018-09-18T22:53:52.973Z,79.90
2018-09-18T22:56:22.660Z,79.20
2018-09-18T22:58:52.318Z,79.70
2018-09-18T23:01:22.003Z,79.60
2018-09-18T23:03:51.669Z,79.90
2018-09-18T23:06:21.355Z,80.00
2018-09-18T23:08:51.041Z,79.70
2018-09-18T23:11:20.712Z,79.50
2018-09-18T23:13:50.366Z,79.40
2018-09-18T23:16:20.054Z,80.00
2018-09-18T23:18:49.948Z,79.90
2018-09-18T23:21:19.860Z,80.70
2018-09-18T23:23:49.562Z,79.90
2018-09-18T23:26:19.625Z,80.20
2018-09-18T23:28:49.302Z,80.40
2018-09-18T23:31:18.998Z,81.10
2018-09-18T23:33:48.702Z,81.40
2018-09-18T23:36:18.417Z,81.50
2018-09-18T23:38:48.125Z,81.90
2018-09-18T23:41:17.834Z,81.50
2018-09-18T23:43:47.546Z,81.60
2018-09-18T23:46:17.263Z,81.40
2018-09-18T23:48:46.958Z,81.40
2018-09-18T23:51:16.712Z,81.70
2018-09-18T23:53:46.684Z,82.10
2018-09-18T23:56:16.375Z,82.10
2018-09-18T23:58:46.086Z,82.30
